createdAt,value
2019-04-24T00:01:27.185Z,6.43
2019-04-24T00:04:10.682Z,6.00
2019-04-24T00:06:39.445Z,6.97
2019-04-24T00:09:06.961Z,6.90
2019-04-24T00:17:06.332Z,6.37
2019-04-24T00:22:08.860Z,6.57
2019-04-24T00:27:08.116Z,6.80
2019-04-24T00:32:04.317Z,7.40
2019-04-24T00:34:26.255Z,7.00
2019-04-24T00:37:10.596Z,7.37
2019-04-24T00:42:16.492Z,7.40
2019-04-24T00:44:26.343Z,8.17
2019-04-24T00:51:56.378Z,7.13
2019-04-24T00:57:11.886Z,7.30
2019-04-24T00:59:42.845Z,8.00
2019-04-24T01:02:21.799Z,7.80
2019-04-24T01:07:49.913Z,6.50
2019-04-24T01:10:20.775Z,7.20
2019-04-24T01:13:06.761Z,6.70
2019-04-24T01:15:27.272Z,7.00
2019-04-24T01:17:49.238Z,8.23
2019-04-24T01:25:37.955Z,7.90
2019-04-24T01:28:02.962Z,6.87
2019-04-24T01:33:16.543Z,6.57
2019-04-24T01:35:44.445Z,6.67
2019-04-24T01:50:47.769Z,7.47
2019-04-24T01:53:23.609Z,6.93
2019-04-24T01:55:51.090Z,7.13
2019-04-24T02:01:24.425Z,7.73
2019-04-24T02:03:42.123Z,7.30
2019-04-24T02:06:17.432Z,8.20
2019-04-24T02:08:57.213Z,8.20
2019-04-24T02:11:43.972Z,6.50
2019-04-24T02:13:47.107Z,8.60
2019-04-24T02:16:28.256Z,7.93
2019-04-24T02:18:51.294Z,7.87
2019-04-24T02:21:32.256Z,7.53
2019-04-24T02:23:58.175Z,8.13
2019-04-24T02:29:07.001Z,6.43
2019-04-24T02:34:31.561Z,6.57
2019-04-24T02:52:30.645Z,6.50
2019-04-24T02:57:31.489Z,7.30
2019-04-24T03:02:33.963Z,6.77
2019-04-24T03:07:45.225Z,6.87
2019-04-24T03:10:13.125Z,7.20
2019-04-24T03:15:24.003Z,8.30
2019-04-24T03:17:38.501Z,7.97
2019-04-24T03:20:18.352Z,7.33
2019-04-24T03:27:56.283Z,8.97
2019-04-24T03:36:11.389Z,7.07
2019-04-24T03:48:34.544Z,6.90
2019-04-24T03:56:18.808Z,7.80
2019-04-24T03:58:39.717Z,6.30
2019-04-24T04:03:43.930Z,7.90
2019-04-24T04:06:04.474Z,7.87
2019-04-24T04:11:19.765Z,6.83
2019-04-24T04:13:42.064Z,7.37
2019-04-24T04:29:11.909Z,8.63
2019-04-24T04:39:18.623Z,8.40
2019-04-24T04:42:23.761Z,8.30
2019-04-24T04:44:44.701Z,9.67
2019-04-24T04:52:34.232Z,10.07
2019-04-24T04:57:37.978Z,9.77
2019-04-24T05:02:44.779Z,8.40
2019-04-24T05:12:34.464Z,9.90
2019-04-24T05:17:45.015Z,11.20
2019-04-24T05:19:52.940Z,11.37
2019-04-24T05:25:01.186Z,8.70
2019-04-24T05:30:01.003Z,8.43
2019-04-24T05:35:15.269Z,9.53
2019-04-24T05:40:31.038Z,9.30
2019-04-24T05:45:32.087Z,9.70
2019-04-24T05:50:48.987Z,9.50
2019-04-24T06:06:56.464Z,10.20
2019-04-24T06:09:21.789Z,10.10
2019-04-24T06:14:52.087Z,10.07
2019-04-24T06:24:54.827Z,11.23
2019-04-24T06:27:34.861Z,11.20
2019-04-24T06:32:37.674Z,9.93
2019-04-24T06:43:09.044Z,11.20
2019-04-24T06:45:42.341Z,10.17
2019-04-24T06:48:13.956Z,10.10
2019-04-24T06:53:19.443Z,10.10
2019-04-24T06:56:06.596Z,11.87
2019-04-24T07:06:30.771Z,11.23
2019-04-24T07:09:01.053Z,10.37
2019-04-24T07:11:33.837Z,10.87
2019-04-24T07:14:09.558Z,10.60
2019-04-24T07:19:39.399Z,9.70
2019-04-24T07:22:15.228Z,10.87
2019-04-24T07:27:47.943Z,9.50
2019-04-24T07:29:54.705Z,9.87
2019-04-24T07:32:50.728Z,9.47
2019-04-24T07:35:11.109Z,8.40
2019-04-24T07:40:04.347Z,7.80
2019-04-24T07:42:44.849Z,7.80
2019-04-24T07:47:45.858Z,8.73
2019-04-24T07:50:41.297Z,7.60
2019-04-24T07:53:04.053Z,8.77
2019-04-24T07:55:43.177Z,8.37
2019-04-24T07:58:05.590Z,8.90
2019-04-24T08:00:49.638Z,8.30
2019-04-24T08:03:29.137Z,8.30
2019-04-24T08:05:44.149Z,6.97
2019-04-24T08:08:37.976Z,5.67
2019-04-24T08:11:02.329Z,5.77
2019-04-24T08:13:45.987Z,6.33
2019-04-24T08:16:14.800Z,7.37
2019-04-24T08:18:54.078Z,6.87
2019-04-24T08:21:28.099Z,6.17
2019-04-24T08:24:19.498Z,5.45
2019-04-24T08:26:44.608Z,6.45
2019-04-24T08:29:37.214Z,5.73
2019-04-24T08:31:50.727Z,6.67
2019-04-24T08:34:35.866Z,6.47
2019-04-24T08:36:57.802Z,7.17
2019-04-24T08:39:44.217Z,6.30
2019-04-24T08:42:51.321Z,7.70
2019-04-24T08:47:53.931Z,3.57
2019-04-24T08:52:55.230Z,4.10
2019-04-24T09:00:41.326Z,3.77
2019-04-24T09:08:50.643Z,4.25
2019-04-24T09:11:14.584Z,3.92
2019-04-24T09:14:00.444Z,3.55
2019-04-24T09:16:28.812Z,4.20
2019-04-24T09:19:02.793Z,3.95
2019-04-24T09:21:41.282Z,3.52
2019-04-24T09:27:10.399Z,3.45
2019-04-24T09:29:55.762Z,4.00
2019-04-24T09:37:51.249Z,3.17
2019-04-24T09:48:10.649Z,3.15
2019-04-24T09:50:53.959Z,3.15
2019-04-24T09:53:42.226Z,3.45
2019-04-24T09:55:52.918Z,3.60
2019-04-24T09:58:25.262Z,2.92
2019-04-24T10:03:53.334Z,2.80
2019-04-24T10:06:30.459Z,3.30
2019-04-24T10:08:55.495Z,3.00
2019-04-24T10:16:51.010Z,2.58
2019-04-24T10:19:22.734Z,3.10
2019-04-24T10:24:32.780Z,3.20
2019-04-24T10:27:10.465Z,3.17
2019-04-24T10:29:53.812Z,3.08
2019-04-24T10:32:47.431Z,3.15
2019-04-24T10:35:33.397Z,2.98
2019-04-24T10:38:21.980Z,3.60
2019-04-24T10:43:13.160Z,3.60
2019-04-24T10:45:46.201Z,3.25
2019-04-24T10:48:19.001Z,2.90
2019-04-24T10:50:58.490Z,3.15
2019-04-24T10:53:36.313Z,2.55
2019-04-24T10:56:09.654Z,3.33
2019-04-24T11:01:23.691Z,2.85
2019-04-24T11:06:25.284Z,2.95
2019-04-24T11:09:08.686Z,4.22
2019-04-24T11:11:49.258Z,3.00
2019-04-24T11:14:31.569Z,3.45
2019-04-24T11:19:52.348Z,2.60
2019-04-24T11:22:21.107Z,2.58
2019-04-24T11:25:01.004Z,2.80
2019-04-24T11:27:34.625Z,2.85
2019-04-24T11:30:06.962Z,2.67
2019-04-24T11:45:44.585Z,2.80
2019-04-24T11:48:19.881Z,2.92
2019-04-24T11:53:36.933Z,3.33
2019-04-24T11:56:01.182Z,3.25
2019-04-24T12:01:21.798Z,2.83
2019-04-24T12:04:03.485Z,3.20
2019-04-24T12:06:35.882Z,2.80
2019-04-24T12:08:59.218Z,2.80
2019-04-24T12:14:05.572Z,3.40
2019-04-24T12:19:36.166Z,2.93
2019-04-24T12:24:21.288Z,2.97
2019-04-24T12:26:52.562Z,3.27
2019-04-24T12:29:27.353Z,2.73
2019-04-24T12:32:16.948Z,2.47
2019-04-24T12:35:14.377Z,3.50
2019-04-24T12:37:48.847Z,3.10
2019-04-24T12:40:35.230Z,2.63
2019-04-24T12:43:04.643Z,3.90
2019-04-24T12:45:32.115Z,2.90
2019-04-24T12:50:43.872Z,3.33
2019-04-24T12:53:10.111Z,3.47
2019-04-24T12:55:52.469Z,2.40
2019-04-24T12:58:42.681Z,2.60
2019-04-24T13:01:30.979Z,3.47
2019-04-24T13:09:13.982Z,2.80
2019-04-24T13:11:29.365Z,2.87
2019-04-24T13:14:09.781Z,2.47
2019-04-24T13:17:08.934Z,3.43
2019-04-24T13:19:20.224Z,3.30
2019-04-24T13:21:37.304Z,2.70
2019-04-24T13:24:15.434Z,2.93
2019-04-24T13:29:48.936Z,3.20
2019-04-24T13:32:21.857Z,3.10
2019-04-24T13:34:53.476Z,3.37
2019-04-24T13:37:48.615Z,2.77
2019-04-24T13:39:59.754Z,2.47
2019-04-24T13:42:38.628Z,3.10
2019-04-24T13:45:08.827Z,3.47
2019-04-24T13:47:49.348Z,2.40
2019-04-24T13:50:18.053Z,3.40
2019-04-24T13:53:19.903Z,3.10
2019-04-24T13:58:03.909Z,2.87
2019-04-24T14:00:39.674Z,2.30
2019-04-24T14:12:27.040Z,2.40
2019-04-24T14:13:46.383Z,2.60
2019-04-24T14:21:09.621Z,2.67
2019-04-24T14:23:59.156Z,2.50
2019-04-24T14:26:23.091Z,3.00
2019-04-24T14:36:37.163Z,2.87
2019-04-24T14:41:38.396Z,2.60
2019-04-24T14:44:24.719Z,2.10
2019-04-24T14:46:59.236Z,3.37
2019-04-24T14:51:59.351Z,2.77
2019-04-24T14:54:33.405Z,2.57
2019-04-24T14:57:03.188Z,2.60
2019-04-24T14:59:34.651Z,2.47
2019-04-24T15:02:35.388Z,2.90
2019-04-24T15:04:46.844Z,2.40
2019-04-24T15:09:52.800Z,3.13
2019-04-24T15:18:00.611Z,2.70
2019-04-24T15:22:58.283Z,2.62
2019-04-24T15:25:36.585Z,2.77
2019-04-24T15:28:10.831Z,2.30
2019-04-24T15:33:16.144Z,3.30
2019-04-24T15:35:55.450Z,2.50
2019-04-24T15:38:16.721Z,3.13
2019-04-24T15:41:03.093Z,3.00
2019-04-24T15:43:25.229Z,2.70
2019-04-24T15:51:16.990Z,4.73
2019-04-24T15:53:15.211Z,5.20
2019-04-24T15:55:51.655Z,3.17
2019-04-24T15:58:33.920Z,3.17
2019-04-24T16:05:59.347Z,3.90
2019-04-24T16:08:28.913Z,4.47
2019-04-24T16:10:57.501Z,3.83
2019-04-24T16:13:31.463Z,4.17
2019-04-24T16:16:21.914Z,3.20
2019-04-24T16:19:21.654Z,2.90
2019-04-24T16:21:24.770Z,4.00
2019-04-24T16:26:39.952Z,3.33
2019-04-24T16:29:03.121Z,3.47
2019-04-24T16:36:36.333Z,3.67
2019-04-24T16:41:38.051Z,9.97
2019-04-24T16:44:14.623Z,7.33
2019-04-24T16:46:44.704Z,7.73
2019-04-24T16:49:03.215Z,5.17
2019-04-24T16:54:05.688Z,3.47
2019-04-24T16:56:42.668Z,3.13
2019-04-24T16:59:02.909Z,3.00
2019-04-24T17:09:11.839Z,3.40
2019-04-24T17:11:36.654Z,3.07
2019-04-24T17:14:19.277Z,3.13
2019-04-24T17:16:58.916Z,2.13
2019-04-24T17:24:14.236Z,3.20
2019-04-24T17:26:55.250Z,2.10
2019-04-24T17:31:39.021Z,2.80
2019-04-24T17:34:24.743Z,2.37
2019-04-24T17:36:28.993Z,2.60
2019-04-24T17:38:54.934Z,2.00
2019-04-24T17:41:31.540Z,2.60
2019-04-24T17:44:31.546Z,4.70
2019-04-24T17:47:57.276Z,7.20
2019-04-24T17:49:23.289Z,2.87
2019-04-24T17:51:55.691Z,2.20
2019-04-24T17:54:21.027Z,2.90
2019-04-24T17:56:57.364Z,2.13
2019-04-24T17:58:54.660Z,2.63
2019-04-24T18:01:23.369Z,2.70
2019-04-24T18:03:53.296Z,2.30
2019-04-24T18:06:22.184Z,2.50
2019-04-24T18:08:51.044Z,1.90
2019-04-24T18:11:21.564Z,1.90
2019-04-24T18:13:50.109Z,2.97
2019-04-24T18:16:18.616Z,2.20
2019-04-24T18:18:47.072Z,2.60
2019-04-24T18:21:15.583Z,2.40
2019-04-24T18:23:44.024Z,2.10
2019-04-24T18:26:19.714Z,6.70
2019-04-24T18:28:48.482Z,5.90
2019-04-24T18:31:17.282Z,2.73
2019-04-24T18:33:46.026Z,2.50
2019-04-24T18:36:14.432Z,2.30
2019-04-24T18:38:42.914Z,2.27
2019-04-24T18:41:12.200Z,2.80
2019-04-24T18:43:42.042Z,2.60
2019-04-24T18:46:10.729Z,2.50
2019-04-24T18:48:42.088Z,5.33
2019-04-24T18:51:12.292Z,9.63
2019-04-24T18:53:42.109Z,3.00
2019-04-24T18:56:12.307Z,2.10
2019-04-24T18:58:41.607Z,2.90
2019-04-24T19:01:12.110Z,3.10
2019-04-24T19:03:41.651Z,2.77
2019-04-24T19:06:26.954Z,2.77
2019-04-24T19:08:41.343Z,3.00
2019-04-24T19:11:11.553Z,3.00
2019-04-24T19:13:41.300Z,2.53
2019-04-24T19:16:09.914Z,4.27
2019-04-24T19:18:38.338Z,2.80
2019-04-24T19:21:06.890Z,2.40
2019-04-24T19:23:35.302Z,4.57
2019-04-24T19:26:04.068Z,9.87
2019-04-24T19:28:32.542Z,2.70
2019-04-24T19:31:01.007Z,2.43
2019-04-24T19:33:29.552Z,2.83
2019-04-24T19:35:57.978Z,2.77
2019-04-24T19:38:26.477Z,2.73
2019-04-24T19:40:54.953Z,2.70
2019-04-24T19:43:23.388Z,2.67
2019-04-24T19:45:52.165Z,3.20
2019-04-24T19:48:23.956Z,2.80
2019-04-24T19:50:51.682Z,2.50
2019-04-24T19:53:24.845Z,3.00
2019-04-24T19:55:52.243Z,2.80
2019-04-24T19:58:21.964Z,2.93
2019-04-24T20:00:51.255Z,2.90
2019-04-24T20:03:22.842Z,2.97
2019-04-24T20:05:53.364Z,3.73
2019-04-24T20:08:23.144Z,2.83
2019-04-24T20:11:08.714Z,2.90
2019-04-24T20:13:37.134Z,2.70
2019-04-24T20:16:05.896Z,3.30
2019-04-24T20:18:34.575Z,3.67
2019-04-24T20:21:03.070Z,2.90
2019-04-24T20:23:36.368Z,2.63
2019-04-24T20:26:01.677Z,2.87
2019-04-24T20:28:31.454Z,3.20
2019-04-24T20:31:01.934Z,2.80
2019-04-24T20:33:30.466Z,3.20
2019-04-24T20:35:58.917Z,3.00
2019-04-24T20:38:27.389Z,3.20
2019-04-24T20:40:55.901Z,2.80
2019-04-24T20:43:24.300Z,2.37
2019-04-24T20:45:52.759Z,2.80
2019-04-24T20:48:23.082Z,2.87
2019-04-24T20:50:51.829Z,2.87
2019-04-24T20:53:20.852Z,3.43
2019-04-24T20:55:51.383Z,2.90
2019-04-24T20:58:20.417Z,2.80
2019-04-24T21:00:50.375Z,2.70
2019-04-24T21:03:19.509Z,3.20
2019-04-24T21:06:05.506Z,2.80
2019-04-24T21:08:50.823Z,3.10
2019-04-24T21:11:19.298Z,2.70
2019-04-24T21:13:47.808Z,3.13
2019-04-24T21:16:16.358Z,4.00
2019-04-24T21:18:44.797Z,3.40
2019-04-24T21:21:13.218Z,3.53
2019-04-24T21:23:53.167Z,3.10
2019-04-24T21:26:11.796Z,3.33
2019-04-24T21:28:41.584Z,3.00
2019-04-24T21:31:10.232Z,2.83
2019-04-24T21:33:38.681Z,3.20
2019-04-24T21:36:07.345Z,2.90
2019-04-24T21:38:35.810Z,2.70
2019-04-24T21:41:04.360Z,2.90
2019-04-24T21:43:33.588Z,3.00
2019-04-24T21:46:02.929Z,3.30
2019-04-24T21:48:31.962Z,3.50
2019-04-24T21:51:01.310Z,2.90
2019-04-24T21:53:29.718Z,2.60
2019-04-24T21:55:58.122Z,3.10
2019-04-24T21:58:27.077Z,3.30
2019-04-24T22:01:03.354Z,3.50
2019-04-24T22:03:36.762Z,3.77
2019-04-24T22:06:07.697Z,3.57
2019-04-24T22:08:36.141Z,2.87
2019-04-24T22:11:05.113Z,3.40
2019-04-24T22:13:34.815Z,3.20
2019-04-24T22:16:03.459Z,3.43
2019-04-24T22:18:33.321Z,3.13
2019-04-24T22:21:04.980Z,3.17
2019-04-24T22:23:38.684Z,2.80
2019-04-24T22:26:08.887Z,3.10
2019-04-24T22:28:37.336Z,3.00
2019-04-24T22:31:26.126Z,3.00
2019-04-24T22:34:01.323Z,3.47
2019-04-24T22:36:29.854Z,3.40
2019-04-24T22:39:05.444Z,3.00
2019-04-24T22:41:33.873Z,3.03
2019-04-24T22:44:02.336Z,3.10
2019-04-24T22:46:32.510Z,3.20
2019-04-24T22:49:01.504Z,3.50
2019-04-24T22:51:31.003Z,3.37
2019-04-24T22:54:00.281Z,3.27
2019-04-24T22:56:40.998Z,2.50
2019-04-24T22:59:01.039Z,3.23
2019-04-24T23:01:31.365Z,2.90
2019-04-24T23:04:01.562Z,3.50
2019-04-24T23:06:32.144Z,4.10
2019-04-24T23:09:01.961Z,3.00
2019-04-24T23:11:32.808Z,3.23
2019-04-24T23:14:00.769Z,3.03
2019-04-24T23:16:29.177Z,2.70
2019-04-24T23:18:57.685Z,2.80
2019-04-24T23:21:32.000Z,3.17
2019-04-24T23:24:14.836Z,3.53
2019-04-24T23:26:53.752Z,3.30
2019-04-24T23:29:23.780Z,3.23
2019-04-24T23:32:10.108Z,3.40
2019-04-24T23:34:41.512Z,3.33
2019-04-24T23:37:11.857Z,2.53
2019-04-24T23:39:40.485Z,3.27
2019-04-24T23:42:08.923Z,3.20
2019-04-24T23:44:37.341Z,2.50
2019-04-24T23:47:06.323Z,2.70
2019-04-24T23:49:35.514Z,3.03
2019-04-24T23:52:06.486Z,3.17
2019-04-24T23:54:35.227Z,2.87
2019-04-24T23:57:04.788Z,3.10
2019-04-24T23:59:33.273Z,2.93
